Time;durP1;ratioP1;P1;durP2;ratioP2;P2;SDS_P1;SDS_P2;PMS_P1;PMS_P2;Temp;Humidity;BMP_temperature;BMP_pressure;BME280_temperature;BME280_humidity;BME280_pressure;Samples;Min_cycle;Max_cycle;Signal;HPM_P1;HPM_P2
2023/02/07 00:01:20;;;;;;;11.00;7.80;;;;;;;;;;5034140;28;20194;-86
2023/02/07 00:03:50;;;;;;;12.43;8.43;;;;;;;;;;5034742;28;20181;-86
2023/02/07 00:06:21;;;;;;;10.37;8.20;;;;;;;;;;5033762;28;20190;-86
2023/02/07 00:08:47;;;;;;;13.87;8.80;;;;;;;;;;5033366;28;20934;-86
2023/02/07 00:11:15;;;;;;;11.60;8.83;;;;;;;;;;5026708;28;20197;-87
2023/02/07 00:13:41;;;;;;;11.77;8.10;;;;;;;;;;5020682;28;20181;-87
2023/02/07 00:16:07;;;;;;;12.33;8.73;;;;;;;;;;5033264;28;20641;-87
2023/02/07 00:18:34;;;;;;;14.10;9.10;;;;;;;;;;5033479;28;20511;-87
2023/02/07 00:21:07;;;;;;;12.10;8.63;;;;;;;;;;5030378;28;20269;-86
2023/02/07 00:23:33;;;;;;;10.57;9.13;;;;;;;;;;5026134;28;20185;-86
2023/02/07 00:26:00;;;;;;;12.33;8.80;;;;;;;;;;5033580;28;20324;-87
2023/02/07 00:28:26;;;;;;;13.63;9.03;;;;;;;;;;5032901;28;20190;-87
2023/02/07 00:31:02;;;;;;;12.83;9.07;;;;;;;;;;5032905;28;20273;-86
2023/02/07 00:33:28;;;;;;;11.87;8.53;;;;;;;;;;5033319;28;20564;-87
2023/02/07 00:35:58;;;;;;;13.10;9.30;;;;;;;;;;5032559;28;20647;-87
2023/02/07 00:38:24;;;;;;;11.60;8.63;;;;;;;;;;5033915;28;20210;-86
2023/02/07 00:40:50;;;;;;;10.60;8.50;;;;;;;;;;5031516;28;20186;-86
2023/02/07 00:43:19;;;;;;;13.00;9.50;;;;;;;;;;5034372;28;20181;-86
2023/02/07 00:45:46;;;;;;;12.13;9.43;;;;;;;;;;5030926;28;20185;-86
2023/02/07 00:48:13;;;;;;;14.30;9.00;;;;;;;;;;5033282;28;20214;-87
2023/02/07 00:50:40;;;;;;;15.80;8.63;;;;;;;;;;5032756;28;20276;-87
2023/02/07 00:53:06;;;;;;;12.27;8.83;;;;;;;;;;5033414;28;20170;-86
2023/02/07 00:55:47;;;;;;;12.00;9.00;;;;;;;;;;5033038;28;20234;-86
2023/02/07 00:58:13;;;;;;;14.47;9.07;;;;;;;;;;5023831;28;20634;-87
2023/02/07 01:00:40;;;;;;;11.47;8.80;;;;;;;;;;5032684;28;20648;-87
2023/02/07 01:03:06;;;;;;;15.30;10.10;;;;;;;;;;5034796;28;20170;-87
2023/02/07 01:05:37;;;;;;;15.30;8.97;;;;;;;;;;5033842;28;20185;-86
2023/02/07 01:08:32;;;;;;;11.43;9.03;;;;;;;;;;5034518;28;20587;-89
2023/02/07 01:11:05;;;;;;;16.20;10.10;;;;;;;;;;5034503;28;20170;-87
2023/02/07 01:13:32;;;;;;;12.70;8.63;;;;;;;;;;5033353;28;20189;-87
2023/02/07 01:15:58;;;;;;;12.80;9.47;;;;;;;;;;5034029;28;20295;-87
2023/02/07 01:18:24;;;;;;;13.17;9.27;;;;;;;;;;5033551;28;20193;-86
2023/02/07 01:20:50;;;;;;;13.03;9.77;;;;;;;;;;5033290;28;20456;-86
2023/02/07 01:23:18;;;;;;;11.63;8.43;;;;;;;;;;5033454;28;20710;-87
2023/02/07 01:25:44;;;;;;;15.13;8.43;;;;;;;;;;5032421;28;20594;-87
2023/02/07 01:28:11;;;;;;;13.10;9.43;;;;;;;;;;5030901;28;20444;-87
2023/02/07 01:30:41;;;;;;;13.37;9.17;;;;;;;;;;5033404;28;20185;-87
2023/02/07 01:33:07;;;;;;;16.53;9.50;;;;;;;;;;5034153;28;20185;-87
2023/02/07 01:35:33;;;;;;;13.23;9.30;;;;;;;;;;5030046;28;20192;-87
2023/02/07 01:38:01;;;;;;;11.03;9.13;;;;;;;;;;5023593;28;20191;-86
2023/02/07 01:40:27;;;;;;;15.60;9.70;;;;;;;;;;5032423;28;20631;-87
2023/02/07 01:42:53;;;;;;;13.83;9.17;;;;;;;;;;5032107;28;20440;-87
2023/02/07 01:45:32;;;;;;;13.30;9.17;;;;;;;;;;5032527;28;20170;-86
2023/02/07 01:48:01;;;;;;;14.87;8.50;;;;;;;;;;5032548;28;21037;-86
2023/02/07 01:50:27;;;;;;;14.77;9.53;;;;;;;;;;5033221;28;20579;-87
2023/02/07 01:52:54;;;;;;;11.90;8.97;;;;;;;;;;5032118;28;20440;-86
2023/02/07 01:55:25;;;;;;;12.53;9.13;;;;;;;;;;5031047;28;20560;-87
2023/02/07 01:57:52;;;;;;;11.40;8.87;;;;;;;;;;5031841;28;20663;-87
2023/02/07 02:00:18;;;;;;;11.33;8.63;;;;;;;;;;5033559;28;20169;-87
2023/02/07 02:02:45;;;;;;;11.23;8.80;;;;;;;;;;5032393;28;20625;-87
2023/02/07 02:05:11;;;;;;;12.67;8.90;;;;;;;;;;5033066;28;20273;-87
2023/02/07 02:07:38;;;;;;;11.87;9.20;;;;;;;;;;5032720;28;20185;-87
2023/02/07 02:10:15;;;;;;;15.60;9.87;;;;;;;;;;5026765;28;20178;-87
2023/02/07 02:12:54;;;;;;;13.60;9.73;;;;;;;;;;5029622;28;20436;-87
2023/02/07 02:15:41;;;;;;;16.27;9.83;;;;;;;;;;5027070;28;20507;-86
2023/02/07 02:18:10;;;;;;;14.00;9.30;;;;;;;;;;5031772;28;20835;-86
2023/02/07 02:20:36;;;;;;;11.83;9.57;;;;;;;;;;5032437;28;20174;-87
2023/02/07 02:23:10;;;;;;;11.13;8.90;;;;;;;;;;5031760;28;20559;-87
2023/02/07 02:26:00;;;;;;;13.60;9.57;;;;;;;;;;5017042;28;20185;-87
2023/02/07 02:28:44;;;;;;;15.57;9.80;;;;;;;;;;5024428;28;20468;-87
2023/02/07 02:31:10;;;;;;;13.47;9.40;;;;;;;;;;5031210;28;20428;-86
2023/02/07 02:33:44;;;;;;;13.67;9.40;;;;;;;;;;5032352;28;20419;-87
2023/02/07 02:36:18;;;;;;;12.60;8.87;;;;;;;;;;5032152;28;20225;-86
2023/02/07 02:39:06;;;;;;;14.03;9.53;;;;;;;;;;5033328;28;20477;-87
2023/02/07 02:41:50;;;;;;;13.37;9.13;;;;;;;;;;5031379;28;21001;-87
2023/02/07 02:44:21;;;;;;;15.17;9.97;;;;;;;;;;5028924;28;20788;-87
2023/02/07 02:46:48;;;;;;;15.57;10.57;;;;;;;;;;5027749;28;21019;-87
2023/02/07 02:49:15;;;;;;;17.07;11.00;;;;;;;;;;5028940;28;20173;-87
2023/02/07 02:51:42;;;;;;;14.23;9.47;;;;;;;;;;5027908;28;20438;-87
2023/02/07 02:54:26;;;;;;;11.77;9.07;;;;;;;;;;5028148;28;20543;-87
2023/02/07 02:57:15;;;;;;;11.73;9.10;;;;;;;;;;5024592;28;20480;-87
2023/02/07 03:00:00;;;;;;;14.23;9.77;;;;;;;;;;5030028;28;20887;-88
2023/02/07 03:02:38;;;;;;;12.60;9.43;;;;;;;;;;5036521;28;21001;-87
2023/02/07 03:05:11;;;;;;;15.47;9.43;;;;;;;;;;5042368;28;20185;-87
2023/02/07 03:07:56;;;;;;;13.43;10.33;;;;;;;;;;5037426;28;20416;-87
2023/02/07 03:10:28;;;;;;;13.87;8.87;;;;;;;;;;5035675;28;20417;-86
2023/02/07 03:12:54;;;;;;;14.27;9.73;;;;;;;;;;5035350;28;20447;-87
2023/02/07 03:15:33;;;;;;;10.83;8.73;;;;;;;;;;5020163;28;20245;-87
2023/02/07 03:18:08;;;;;;;12.73;9.27;;;;;;;;;;5030275;28;20420;-87
2023/02/07 03:20:36;;;;;;;14.20;9.30;;;;;;;;;;5034686;28;20474;-87
2023/02/07 03:23:04;;;;;;;13.57;9.53;;;;;;;;;;5035698;28;20508;-87
2023/02/07 03:25:31;;;;;;;13.03;9.70;;;;;;;;;;5034504;28;20432;-86
2023/02/07 03:27:57;;;;;;;12.37;9.50;;;;;;;;;;5034434;28;20432;-87
2023/02/07 03:30:26;;;;;;;13.97;9.47;;;;;;;;;;5021758;28;20480;-87
2023/02/07 03:32:53;;;;;;;13.10;10.03;;;;;;;;;;5035666;28;20440;-87
2023/02/07 03:35:29;;;;;;;14.37;9.23;;;;;;;;;;5034811;28;20464;-86
2023/02/07 03:37:57;;;;;;;18.17;10.80;;;;;;;;;;5035346;28;20412;-87
2023/02/07 03:40:26;;;;;;;13.43;9.07;;;;;;;;;;5034702;28;20898;-87
2023/02/07 03:42:59;;;;;;;14.87;10.40;;;;;;;;;;5031467;28;20512;-87
2023/02/07 03:45:25;;;;;;;14.03;8.97;;;;;;;;;;5034579;28;20432;-86
2023/02/07 03:47:51;;;;;;;11.77;9.30;;;;;;;;;;5035876;28;20409;-87
2023/02/07 03:50:17;;;;;;;14.00;9.63;;;;;;;;;;5035061;28;20428;-87
2023/02/07 03:52:43;;;;;;;14.43;9.00;;;;;;;;;;5034955;28;20424;-87
2023/02/07 03:55:10;;;;;;;15.70;9.77;;;;;;;;;;5031053;28;20575;-87
2023/02/07 03:57:36;;;;;;;14.80;10.07;;;;;;;;;;5031459;28;20440;-86
2023/02/07 04:00:03;;;;;;;13.80;8.97;;;;;;;;;;5034654;28;20432;-87
2023/02/07 04:02:29;;;;;;;13.73;9.03;;;;;;;;;;5049240;28;21046;-87
2023/02/07 04:04:55;;;;;;;13.70;9.63;;;;;;;;;;5034358;28;20451;-87
2023/02/07 04:07:21;;;;;;;13.20;9.13;;;;;;;;;;5035111;28;20891;-87
2023/02/07 04:09:47;;;;;;;14.23;9.70;;;;;;;;;;5031198;28;22215;-86
2023/02/07 04:12:13;;;;;;;12.30;9.67;;;;;;;;;;5030700;28;20444;-87
2023/02/07 04:14:39;;;;;;;14.13;8.10;;;;;;;;;;5034146;28;20948;-87
2023/02/07 04:17:05;;;;;;;16.07;10.37;;;;;;;;;;5034902;28;20459;-87
2023/02/07 04:19:31;;;;;;;14.40;9.67;;;;;;;;;;5033576;28;20437;-86
2023/02/07 04:21:57;;;;;;;13.03;8.50;;;;;;;;;;5035112;28;20706;-87
2023/02/07 04:24:23;;;;;;;11.97;8.27;;;;;;;;;;5029197;28;20879;-88
2023/02/07 04:26:49;;;;;;;13.53;9.37;;;;;;;;;;5033730;28;21198;-87
2023/02/07 04:29:15;;;;;;;14.43;9.13;;;;;;;;;;5034154;28;20432;-87
2023/02/07 04:31:41;;;;;;;14.13;11.60;;;;;;;;;;5033619;28;21357;-88
2023/02/07 04:34:11;;;;;;;11.93;8.43;;;;;;;;;;5033353;28;20469;-86
2023/02/07 04:36:37;;;;;;;13.60;9.33;;;;;;;;;;5014818;28;20441;-88
2023/02/07 04:39:04;;;;;;;12.93;8.77;;;;;;;;;;5030934;28;20503;-87
2023/02/07 04:41:30;;;;;;;14.03;8.97;;;;;;;;;;5026797;28;20437;-87
2023/02/07 04:43:56;;;;;;;12.43;8.83;;;;;;;;;;5033728;28;20456;-87
2023/02/07 04:46:22;;;;;;;12.67;8.77;;;;;;;;;;5033826;28;20432;-86
2023/02/07 04:48:48;;;;;;;11.10;7.93;;;;;;;;;;5031692;28;20420;-87
2023/02/07 04:51:14;;;;;;;14.50;8.57;;;;;;;;;;5029546;28;20512;-87
2023/02/07 04:53:40;;;;;;;12.70;8.87;;;;;;;;;;5033883;28;20491;-87
2023/02/07 04:56:07;;;;;;;11.00;8.53;;;;;;;;;;5031917;28;20480;-87
2023/02/07 04:58:33;;;;;;;13.83;8.80;;;;;;;;;;5033280;28;20397;-87
2023/02/07 05:00:59;;;;;;;11.97;8.40;;;;;;;;;;5033613;28;20435;-86
2023/02/07 05:03:25;;;;;;;9.97;7.80;;;;;;;;;;5033795;28;20562;-87
2023/02/07 05:05:53;;;;;;;12.13;8.90;;;;;;;;;;5032792;28;20425;-87
2023/02/07 05:08:19;;;;;;;13.53;9.27;;;;;;;;;;5032178;28;20435;-87
2023/02/07 05:10:45;;;;;;;12.20;8.97;;;;;;;;;;5032437;28;20429;-87
2023/02/07 05:13:11;;;;;;;12.00;8.30;;;;;;;;;;5031355;28;20931;-86
2023/02/07 05:15:38;;;;;;;12.77;9.03;;;;;;;;;;5032667;28;20971;-86
2023/02/07 05:18:04;;;;;;;12.20;8.30;;;;;;;;;;5034337;28;20424;-87
2023/02/07 05:20:30;;;;;;;14.10;8.63;;;;;;;;;;5033657;28;20432;-86
2023/02/07 05:22:56;;;;;;;10.90;7.80;;;;;;;;;;5032774;28;20456;-87
2023/02/07 05:25:22;;;;;;;10.40;8.27;;;;;;;;;;5033083;28;20436;-87
2023/02/07 05:27:48;;;;;;;10.27;7.83;;;;;;;;;;5032643;28;20425;-87
2023/02/07 05:30:15;;;;;;;12.23;7.93;;;;;;;;;;5034356;28;21068;-87
2023/02/07 05:35:26;;;;;;;10.73;8.07;;;;;;;;;;5034126;28;20502;-87
2023/02/07 05:37:52;;;;;;;12.03;8.83;;;;;;;;;;5030841;28;20858;-86
2023/02/07 05:40:18;;;;;;;12.40;7.40;;;;;;;;;;5019934;28;20776;-86
2023/02/07 05:42:46;;;;;;;12.73;7.60;;;;;;;;;;5032670;28;20864;-85
2023/02/07 05:45:12;;;;;;;9.50;7.37;;;;;;;;;;5032657;28;20428;-87
2023/02/07 05:47:38;;;;;;;10.60;7.43;;;;;;;;;;5032157;28;20549;-85
2023/02/07 05:50:04;;;;;;;11.50;7.90;;;;;;;;;;5033155;28;20486;-85
2023/02/07 05:52:30;;;;;;;14.30;8.33;;;;;;;;;;5032528;28;20436;-89
2023/02/07 05:54:56;;;;;;;8.87;6.50;;;;;;;;;;5031448;28;20487;-87
2023/02/07 05:57:22;;;;;;;9.63;7.40;;;;;;;;;;5031237;28;20449;-88
2023/02/07 05:59:48;;;;;;;12.03;7.93;;;;;;;;;;5031736;28;20421;-88
2023/02/07 06:02:14;;;;;;;9.50;8.00;;;;;;;;;;5030011;28;20436;-86
2023/02/07 06:04:40;;;;;;;10.23;6.70;;;;;;;;;;5026036;28;20420;-86
2023/02/07 06:07:07;;;;;;;12.00;8.07;;;;;;;;;;5023339;28;20436;-85
2023/02/07 06:09:33;;;;;;;10.73;7.23;;;;;;;;;;5031700;28;20550;-85
2023/02/07 06:11:59;;;;;;;9.53;7.23;;;;;;;;;;5040092;28;20440;-86
2023/02/07 06:14:25;;;;;;;8.63;7.07;;;;;;;;;;5030874;28;20508;-85
2023/02/07 06:16:51;;;;;;;11.23;7.83;;;;;;;;;;5028653;28;20465;-84
2023/02/07 06:19:17;;;;;;;9.50;7.00;;;;;;;;;;5032942;28;20429;-83
2023/02/07 06:21:43;;;;;;;12.70;8.60;;;;;;;;;;5033473;28;20425;-89
2023/02/07 06:24:09;;;;;;;13.00;8.97;;;;;;;;;;5027353;28;20435;-89
2023/02/07 06:26:36;;;;;;;10.73;8.33;;;;;;;;;;5032865;28;20446;-87
2023/02/07 06:29:02;;;;;;;11.03;7.47;;;;;;;;;;5032905;28;20464;-89
2023/02/07 06:31:28;;;;;;;13.97;8.27;;;;;;;;;;5032757;28;20566;-90
2023/02/07 06:33:54;;;;;;;11.47;8.47;;;;;;;;;;5037596;28;20575;-89
2023/02/07 06:36:20;;;;;;;10.37;8.63;;;;;;;;;;5037414;28;20465;-88
2023/02/07 06:38:46;;;;;;;10.20;8.03;;;;;;;;;;5035077;28;20433;-87
2023/02/07 06:41:12;;;;;;;11.93;8.70;;;;;;;;;;5036825;28;20981;-87
2023/02/07 06:43:38;;;;;;;11.30;7.90;;;;;;;;;;5035538;28;20428;-88
2023/02/07 06:46:04;;;;;;;12.80;8.90;;;;;;;;;;5036330;28;20444;-87
2023/02/07 06:48:30;;;;;;;10.30;8.43;;;;;;;;;;5033314;28;20443;-87
2023/02/07 06:50:56;;;;;;;11.47;7.87;;;;;;;;;;5032065;28;20465;-88
2023/02/07 06:53:23;;;;;;;10.47;8.23;;;;;;;;;;5034182;28;20958;-87
2023/02/07 06:55:49;;;;;;;10.17;7.57;;;;;;;;;;5035390;28;20953;-88
2023/02/07 06:58:15;;;;;;;10.00;7.53;;;;;;;;;;5037957;28;20432;-88
2023/02/07 07:00:41;;;;;;;10.63;7.70;;;;;;;;;;5036961;28;20435;-88
2023/02/07 07:03:10;;;;;;;10.40;6.97;;;;;;;;;;5035502;28;20432;-88
2023/02/07 07:05:36;;;;;;;11.57;8.20;;;;;;;;;;5037229;28;20469;-88
2023/02/07 07:08:02;;;;;;;10.87;7.53;;;;;;;;;;5036056;28;20536;-89
2023/02/07 07:10:28;;;;;;;12.57;7.50;;;;;;;;;;5034763;28;20439;-90
2023/02/07 07:12:54;;;;;;;12.50;8.60;;;;;;;;;;5034920;28;20463;-88
2023/02/07 07:15:20;;;;;;;12.67;7.70;;;;;;;;;;5036233;28;20429;-89
2023/02/07 07:17:46;;;;;;;10.93;7.87;;;;;;;;;;5033136;28;20943;-89
2023/02/07 07:20:12;;;;;;;15.60;8.67;;;;;;;;;;5035768;28;20425;-89
2023/02/07 07:22:38;;;;;;;9.60;8.30;;;;;;;;;;5035959;28;20420;-89
2023/02/07 07:25:04;;;;;;;10.50;8.27;;;;;;;;;;5035760;28;20977;-89
2023/02/07 07:27:30;;;;;;;9.67;7.67;;;;;;;;;;5035611;28;20468;-89
2023/02/07 07:29:56;;;;;;;9.60;8.00;;;;;;;;;;5035052;28;20427;-87
2023/02/07 07:32:23;;;;;;;9.60;7.13;;;;;;;;;;5035921;28;20483;-87
2023/02/07 07:34:49;;;;;;;13.07;7.90;;;;;;;;;;5030723;28;20440;-88
2023/02/07 07:37:15;;;;;;;9.63;7.80;;;;;;;;;;5034549;28;20471;-87
2023/02/07 07:39:43;;;;;;;9.10;7.03;;;;;;;;;;5035957;28;20459;-86
2023/02/07 07:42:09;;;;;;;11.90;7.87;;;;;;;;;;5035907;28;20416;-88
2023/02/07 07:44:35;;;;;;;13.23;7.50;;;;;;;;;;5034367;28;20389;-86
2023/02/07 07:47:01;;;;;;;12.23;8.53;;;;;;;;;;5036027;28;20797;-87
2023/02/07 07:49:27;;;;;;;10.23;6.93;;;;;;;;;;5019767;28;20531;-88
2023/02/07 07:51:53;;;;;;;9.07;7.47;;;;;;;;;;5018190;28;20901;-87
2023/02/07 07:54:19;;;;;;;9.37;7.17;;;;;;;;;;5016618;28;20735;-87
2023/02/07 07:56:45;;;;;;;9.17;7.10;;;;;;;;;;5015961;28;20543;-87
2023/02/07 07:59:12;;;;;;;9.33;7.53;;;;;;;;;;5016346;28;20451;-87
2023/02/07 08:01:38;;;;;;;9.07;7.30;;;;;;;;;;5016369;28;20515;-87
2023/02/07 08:04:04;;;;;;;12.07;7.63;;;;;;;;;;5029891;28;20437;-87
2023/02/07 08:06:30;;;;;;;9.23;6.90;;;;;;;;;;5036288;28;20396;-87
2023/02/07 08:08:56;;;;;;;10.13;7.50;;;;;;;;;;5035884;28;20447;-87
2023/02/07 08:11:23;;;;;;;10.37;7.37;;;;;;;;;;5035177;28;20407;-88
2023/02/07 08:13:49;;;;;;;12.60;8.47;;;;;;;;;;5033657;28;20448;-87
2023/02/07 08:16:15;;;;;;;9.53;6.90;;;;;;;;;;5036070;28;20449;-89
2023/02/07 08:18:42;;;;;;;9.37;6.67;;;;;;;;;;5034758;28;20544;-87
2023/02/07 08:21:08;;;;;;;10.33;7.63;;;;;;;;;;5035873;28;20483;-88
2023/02/07 08:23:34;;;;;;;10.67;6.33;;;;;;;;;;5034497;28;20495;-87
2023/02/07 08:26:00;;;;;;;9.83;7.07;;;;;;;;;;5035796;28;20505;-88
2023/02/07 08:28:26;;;;;;;7.80;6.47;;;;;;;;;;5035180;28;20412;-88
2023/02/07 08:30:53;;;;;;;10.10;6.97;;;;;;;;;;5036057;28;20401;-88
2023/02/07 08:33:19;;;;;;;8.23;6.57;;;;;;;;;;5046744;28;20441;-89
2023/02/07 08:35:45;;;;;;;8.57;7.13;;;;;;;;;;5034784;28;20456;-87
2023/02/07 08:38:11;;;;;;;9.57;6.97;;;;;;;;;;5035941;28;20435;-88
2023/02/07 08:40:38;;;;;;;8.70;6.77;;;;;;;;;;5034905;28;20436;-87
2023/02/07 08:43:06;;;;;;;10.57;7.60;;;;;;;;;;5035217;28;20736;-88
2023/02/07 08:45:32;;;;;;;9.13;6.23;;;;;;;;;;5034078;28;20487;-88
2023/02/07 08:47:58;;;;;;;12.10;7.17;;;;;;;;;;5035559;28;20795;-89
2023/02/07 08:50:25;;;;;;;8.83;7.33;;;;;;;;;;5034633;28;20931;-87
2023/02/07 08:52:51;;;;;;;9.63;7.13;;;;;;;;;;5035046;28;20860;-87
2023/02/07 08:55:17;;;;;;;7.07;5.90;;;;;;;;;;5034769;28;20947;-87
2023/02/07 08:57:43;;;;;;;8.27;6.53;;;;;;;;;;5034466;28;20432;-88
2023/02/07 09:00:09;;;;;;;9.43;6.30;;;;;;;;;;5036340;28;20939;-86
2023/02/07 09:02:35;;;;;;;10.10;7.53;;;;;;;;;;5036177;28;20397;-88
2023/02/07 09:05:02;;;;;;;7.63;6.77;;;;;;;;;;5016607;28;20990;-89
2023/02/07 09:07:29;;;;;;;8.27;6.73;;;;;;;;;;5015330;28;20739;-87
2023/02/07 09:09:55;;;;;;;7.93;6.03;;;;;;;;;;5013990;28;20413;-88
2023/02/07 09:12:21;;;;;;;8.67;6.33;;;;;;;;;;5011333;28;20405;-87
2023/02/07 09:14:47;;;;;;;7.07;6.37;;;;;;;;;;5011223;28;20755;-88
2023/02/07 09:17:13;;;;;;;7.97;6.53;;;;;;;;;;5013504;28;20456;-87
2023/02/07 09:19:39;;;;;;;8.13;6.37;;;;;;;;;;5018531;28;20430;-86
2023/02/07 09:22:05;;;;;;;8.23;6.13;;;;;;;;;;5020118;28;20412;-88
2023/02/07 09:24:31;;;;;;;9.23;6.30;;;;;;;;;;5021159;28;20468;-87
2023/02/07 09:26:57;;;;;;;9.67;6.57;;;;;;;;;;5020729;28;20394;-86
2023/02/07 09:29:24;;;;;;;8.47;6.67;;;;;;;;;;5017865;28;20437;-89
2023/02/07 09:31:50;;;;;;;9.57;6.67;;;;;;;;;;5016485;28;20416;-86
2023/02/07 09:34:16;;;;;;;8.13;6.13;;;;;;;;;;5016521;28;20436;-89
2023/02/07 09:36:43;;;;;;;7.47;6.40;;;;;;;;;;5016359;28;20499;-87
2023/02/07 09:39:09;;;;;;;7.17;5.77;;;;;;;;;;5015811;28;20402;-87
2023/02/07 09:41:56;;;;;;;8.60;6.27;;;;;;;;;;5014915;28;20405;-87
2023/02/07 09:44:43;;;;;;;12.00;6.37;;;;;;;;;;5015412;28;20478;-86
2023/02/07 09:47:11;;;;;;;12.40;6.87;;;;;;;;;;5015634;28;20404;-86
2023/02/07 09:49:56;;;;;;;6.93;6.00;;;;;;;;;;5026480;28;20451;-87
2023/02/07 09:52:30;;;;;;;7.37;5.57;;;;;;;;;;5034514;28;20488;-87
2023/02/07 09:54:59;;;;;;;8.07;5.93;;;;;;;;;;5034666;28;20526;-87
2023/02/07 09:57:28;;;;;;;9.00;6.10;;;;;;;;;;5034910;28;20469;-87
2023/02/07 09:59:58;;;;;;;6.47;5.63;;;;;;;;;;5035611;28;20885;-87
2023/02/07 10:02:24;;;;;;;6.70;5.70;;;;;;;;;;5035762;28;20487;-87
2023/02/07 10:04:52;;;;;;;6.77;5.80;;;;;;;;;;5035242;28;20424;-87
2023/02/07 10:07:18;;;;;;;8.10;5.80;;;;;;;;;;5035967;28;20479;-87
2023/02/07 10:09:45;;;;;;;7.23;6.07;;;;;;;;;;5038785;28;20381;-88
2023/02/07 10:12:20;;;;;;;6.87;5.60;;;;;;;;;;5038778;28;20496;-88
2023/02/07 10:14:49;;;;;;;7.47;6.03;;;;;;;;;;5054238;28;20518;-87
2023/02/07 10:17:27;;;;;;;6.57;5.87;;;;;;;;;;5039158;28;20985;-87
2023/02/07 10:20:00;;;;;;;7.93;6.20;;;;;;;;;;5039590;28;21111;-88
2023/02/07 10:22:44;;;;;;;7.17;6.40;;;;;;;;;;5038860;28;20401;-87
2023/02/07 10:25:13;;;;;;;6.27;4.93;;;;;;;;;;5039060;28;20424;-88
2023/02/07 10:27:40;;;;;;;6.63;5.20;;;;;;;;;;5037417;28;20440;-87
2023/02/07 10:30:35;;;;;;;6.47;5.80;;;;;;;;;;5041658;28;20985;-86
2023/02/07 10:33:04;;;;;;;6.47;5.50;;;;;;;;;;5024055;28;20483;-87
2023/02/07 10:35:38;;;;;;;6.23;5.50;;;;;;;;;;5024669;28;20515;-88
2023/02/07 10:38:06;;;;;;;6.90;6.20;;;;;;;;;;5019061;28;20703;-86
2023/02/07 10:40:39;;;;;;;5.97;5.37;;;;;;;;;;5018268;28;20412;-88
2023/02/07 10:43:25;;;;;;;6.70;5.90;;;;;;;;;;5018808;28;20393;-88
2023/02/07 10:45:52;;;;;;;5.90;5.13;;;;;;;;;;5021266;28;20444;-86
2023/02/07 10:48:19;;;;;;;6.10;5.60;;;;;;;;;;5038789;28;20412;-88
2023/02/07 10:50:45;;;;;;;6.77;5.30;;;;;;;;;;5036769;28;20511;-87
2023/02/07 10:53:11;;;;;;;7.23;5.60;;;;;;;;;;5038116;28;20424;-88
2023/02/07 10:55:39;;;;;;;5.60;4.80;;;;;;;;;;5037523;28;20973;-87
2023/02/07 10:58:05;;;;;;;6.33;5.67;;;;;;;;;;5038306;28;20480;-88
2023/02/07 11:00:32;;;;;;;6.13;5.33;;;;;;;;;;5038514;28;20403;-89
2023/02/07 11:03:03;;;;;;;6.20;5.60;;;;;;;;;;5035566;28;20448;-86
2023/02/07 11:05:34;;;;;;;6.63;5.17;;;;;;;;;;5037450;28;20225;-86
2023/02/07 11:08:02;;;;;;;7.80;5.30;;;;;;;;;;5038563;28;20249;-87
2023/02/07 11:10:32;;;;;;;6.60;5.70;;;;;;;;;;5037015;28;20713;-86
2023/02/07 11:12:58;;;;;;;6.67;5.97;;;;;;;;;;5036022;28;20828;-87
2023/02/07 11:15:43;;;;;;;6.10;5.50;;;;;;;;;;5038559;28;20192;-87
2023/02/07 11:18:22;;;;;;;7.97;5.07;;;;;;;;;;5037846;28;20644;-86
2023/02/07 11:20:51;;;;;;;8.23;5.60;;;;;;;;;;5027636;28;20186;-87
2023/02/07 11:23:17;;;;;;;5.13;4.63;;;;;;;;;;5016856;28;20182;-88
2023/02/07 11:25:45;;;;;;;5.57;5.07;;;;;;;;;;5017766;28;20607;-87
2023/02/07 11:28:20;;;;;;;6.97;5.60;;;;;;;;;;5016484;28;20183;-86
2023/02/07 11:30:47;;;;;;;6.00;5.40;;;;;;;;;;5018193;28;20181;-88
2023/02/07 11:33:18;;;;;;;5.93;5.33;;;;;;;;;;5018463;28;20174;-87
2023/02/07 11:36:03;;;;;;;5.83;4.90;;;;;;;;;;5025149;28;20202;-87
2023/02/07 11:38:29;;;;;;;7.17;5.10;;;;;;;;;;5037037;28;20189;-88
2023/02/07 11:41:02;;;;;;;6.17;5.30;;;;;;;;;;5037138;28;20190;-87
2023/02/07 11:43:28;;;;;;;6.87;5.90;;;;;;;;;;5036211;28;20174;-88
2023/02/07 11:45:59;;;;;;;11.10;5.00;;;;;;;;;;5033719;28;20202;-83
2023/02/07 11:48:28;;;;;;;7.57;5.47;;;;;;;;;;5025301;28;20255;-89
2023/02/07 11:50:56;;;;;;;5.63;5.03;;;;;;;;;;5027289;28;20240;-89
2023/02/07 11:53:28;;;;;;;5.50;4.93;;;;;;;;;;5034863;28;20236;-87
2023/02/07 11:55:55;;;;;;;5.37;4.87;;;;;;;;;;5036047;28;20344;-90
2023/02/07 11:58:27;;;;;;;5.57;4.87;;;;;;;;;;5033889;28;20244;-85
2023/02/07 12:00:54;;;;;;;5.83;4.90;;;;;;;;;;5033544;28;20170;-91
2023/02/07 12:03:27;;;;;;;6.77;4.17;;;;;;;;;;5033999;28;20192;-92
2023/02/07 12:06:01;;;;;;;5.47;4.83;;;;;;;;;;5036109;28;20178;-89
2023/02/07 12:08:29;;;;;;;5.03;4.47;;;;;;;;;;5033100;28;20284;-86
2023/02/07 12:10:57;;;;;;;7.30;5.03;;;;;;;;;;5035878;28;20186;-88
2023/02/07 12:13:33;;;;;;;6.27;5.47;;;;;;;;;;5033897;28;20181;-90
2023/02/07 12:16:03;;;;;;;5.60;4.90;;;;;;;;;;5036913;28;20198;-90
2023/02/07 12:18:35;;;;;;;5.70;5.13;;;;;;;;;;5034960;28;20656;-90
2023/02/07 12:21:16;;;;;;;5.77;4.73;;;;;;;;;;5035337;28;20265;-88
2023/02/07 12:23:52;;;;;;;5.17;4.60;;;;;;;;;;5034980;28;20534;-90
2023/02/07 12:26:20;;;;;;;5.73;4.77;;;;;;;;;;5035440;28;20273;-89
2023/02/07 12:28:51;;;;;;;5.13;4.63;;;;;;;;;;5035878;28;20182;-90
2023/02/07 12:31:25;;;;;;;5.20;4.70;;;;;;;;;;5033847;28;20212;-90
2023/02/07 12:34:14;;;;;;;5.23;4.73;;;;;;;;;;5029562;28;20575;-90
2023/02/07 12:36:43;;;;;;;5.60;5.00;;;;;;;;;;5024675;28;20267;-91
2023/02/07 12:39:21;;;;;;;5.80;5.17;;;;;;;;;;5032962;28;20434;-90
2023/02/07 12:41:55;;;;;;;5.13;4.63;;;;;;;;;;5036021;28;20609;-92
2023/02/07 12:44:25;;;;;;;6.30;4.40;;;;;;;;;;5036411;28;20192;-92
2023/02/07 12:46:59;;;;;;;6.00;5.00;;;;;;;;;;5035785;28;20582;-90
2023/02/07 12:49:31;;;;;;;6.07;5.50;;;;;;;;;;5034026;28;20220;-92
2023/02/07 12:52:18;;;;;;;5.17;4.67;;;;;;;;;;5034534;28;20228;-91
2023/02/07 12:54:58;;;;;;;5.47;4.70;;;;;;;;;;4985714;28;1098006;-91
2023/02/07 12:57:30;;;;;;;5.60;4.83;;;;;;;;;;5034660;28;20196;-90
2023/02/07 13:00:02;;;;;;;6.40;4.47;;;;;;;;;;5033259;28;20170;-90
2023/02/07 13:02:34;;;;;;;5.17;4.20;;;;;;;;;;5034788;28;20182;-90
2023/02/07 13:05:15;;;;;;;4.53;4.13;;;;;;;;;;5033838;28;20181;-92
2023/02/07 13:08:04;;;;;;;5.07;4.50;;;;;;;;;;5035922;28;20209;-90
2023/02/07 13:10:48;;;;;;;4.40;4.00;;;;;;;;;;5008241;28;20234;-91
2023/02/07 13:13:24;;;;;;;5.93;4.87;;;;;;;;;;5051241;28;20185;-90
2023/02/07 13:15:56;;;;;;;5.27;4.00;;;;;;;;;;5035749;28;20209;-93
2023/02/07 13:18:29;;;;;;;5.10;4.20;;;;;;;;;;5036405;28;20182;-90
2023/02/07 13:20:55;;;;;;;5.50;4.77;;;;;;;;;;5031159;28;20249;-89
2023/02/07 13:23:24;;;;;;;4.87;4.37;;;;;;;;;;5023224;28;20190;-89
2023/02/07 13:25:53;;;;;;;6.47;3.93;;;;;;;;;;5034263;28;20197;-90
2023/02/07 13:28:36;;;;;;;4.87;4.37;;;;;;;;;;5034888;28;20170;-90
2023/02/07 13:31:03;;;;;;;3.83;3.43;;;;;;;;;;5034810;28;20287;-87
2023/02/07 13:33:34;;;;;;;5.33;4.07;;;;;;;;;;5031979;28;20260;-89
2023/02/07 13:36:15;;;;;;;4.63;4.20;;;;;;;;;;5020990;28;20355;-91
2023/02/07 13:38:41;;;;;;;4.40;3.97;;;;;;;;;;5026844;28;20243;-88
2023/02/07 13:41:12;;;;;;;5.07;4.57;;;;;;;;;;5027359;28;20174;-89
2023/02/07 13:43:56;;;;;;;5.03;3.83;;;;;;;;;;5031746;28;20259;-89
2023/02/07 13:46:30;;;;;;;4.33;3.93;;;;;;;;;;5034115;28;20255;-89
2023/02/07 13:49:00;;;;;;;4.30;3.93;;;;;;;;;;5033735;28;20186;-89
2023/02/07 13:51:32;;;;;;;4.30;3.90;;;;;;;;;;5034226;28;20251;-90
2023/02/07 13:54:04;;;;;;;4.27;3.87;;;;;;;;;;5031072;28;20209;-89
2023/02/07 13:59:39;;;;;;;5.50;4.07;;;;;;;;;;5027350;28;20225;-90
2023/02/07 14:02:18;;;;;;;4.20;3.80;;;;;;;;;;5034818;28;20182;-88
2023/02/07 14:05:07;;;;;;;5.03;4.07;;;;;;;;;;5028644;28;20626;-87
2023/02/07 14:07:34;;;;;;;4.63;4.17;;;;;;;;;;5034978;28;20200;-89
2023/02/07 14:10:01;;;;;;;4.43;4.03;;;;;;;;;;5035313;28;20185;-89
2023/02/07 14:12:31;;;;;;;4.23;3.83;;;;;;;;;;5028938;28;20193;-91
2023/02/07 14:15:17;;;;;;;3.80;3.27;;;;;;;;;;5034802;28;20276;-90
2023/02/07 14:17:43;;;;;;;4.40;4.00;;;;;;;;;;5033530;28;20201;-86
2023/02/07 14:20:28;;;;;;;6.13;4.33;;;;;;;;;;5032512;28;20186;-88
2023/02/07 14:22:54;;;;;;;3.80;3.50;;;;;;;;;;5027258;28;20189;-88
2023/02/07 14:25:31;;;;;;;4.90;4.13;;;;;;;;;;5028416;28;20186;-87
2023/02/07 14:28:03;;;;;;;5.00;4.17;;;;;;;;;;5033446;28;20877;-87
2023/02/07 14:30:37;;;;;;;5.23;4.40;;;;;;;;;;5034733;28;20208;-88
2023/02/07 14:33:12;;;;;;;4.80;4.30;;;;;;;;;;5034757;28;20190;-88
2023/02/07 14:35:46;;;;;;;4.57;3.83;;;;;;;;;;5033788;28;20335;-87
2023/02/07 14:38:36;;;;;;;4.63;4.23;;;;;;;;;;5033756;28;20265;-88
2023/02/07 14:41:13;;;;;;;4.40;4.00;;;;;;;;;;5033879;28;20249;-89
2023/02/07 14:43:41;;;;;;;5.57;5.00;;;;;;;;;;5031009;28;20281;-88
2023/02/07 14:46:15;;;;;;;5.20;4.20;;;;;;;;;;5034537;28;20166;-89
2023/02/07 14:48:41;;;;;;;4.80;4.30;;;;;;;;;;5033957;28;20212;-87
2023/02/07 14:51:13;;;;;;;5.30;4.80;;;;;;;;;;5034576;28;20498;-88
2023/02/07 14:53:40;;;;;;;5.00;4.60;;;;;;;;;;5026139;28;20207;-88
2023/02/07 14:56:12;;;;;;;4.67;4.20;;;;;;;;;;5027136;28;20589;-87